Waspik, Netherlands
Current Conditions -  °F | °C
As of 2:55 PM on Wednesday 26 Nov 2014 (Local Time) from EHGR Reporting Station
Haze Haze  
Wind Chill: 40°   Ceiling: 1800
Heat Index: 45°   Visibility: 6mi
Dew Point: 39°   Wind: 8mph
Humidity: 81%   Direction: 120°ESE
Pressure: 29.88"   Gusts: NA
Location:  51.69°N, 4.94°E
Report Text: EHGR 261355Z AUTO 12007KT 9000 BR OVC018 07/04 Q1012 WHT 11010KT 8000 BR OVC019 BECMG 5000 -RA SCT013 OVC017
Loading
Personal Weather Stations






























Interactive Weather Map New forecast layout! Learn more

10-Day Weather Forecast

Advertisements
Track Severe Weather on mobile